This is the latest recevied weather packets stored in our database for station/object p43g-13. If no packets are shown the sender has not sent any weather packets the latest 10 day(s).
| Time | Temp. | Humidity | Pressure | Rain* | Wind** | Luminosity | Snow |
|---|---|---|---|---|---|---|---|
| 1787843575 | 31.67° C | 73% | 1012.1 hPa | 0 mm | - | 946 W/m² | - |
| 1787843276 | 31.11° C | 75% | 1012.1 hPa | 0 mm | - | 1006 W/m² | - |
| 1787842975 | 31.11° C | 76% | 1012.3 hPa | 0 mm | - | 997 W/m² | - |
| 1787842676 | 31.11° C | 75% | 1012.3 hPa | 0 mm | - | 265 W/m² | - |
| 1787842375 | 31.67° C | 72% | 1012.1 hPa | 0 mm | - | 934 W/m² | - |
| 1787842076 | 31.11° C | 75% | 1012.1 hPa | 0 mm | - | 909 W/m² | - |
| 1787841777 | 31.67° C | 74% | 1011.9 hPa | 0 mm | - | 489 W/m² | - |
| 1787841476 | 31.11° C | 74% | 1011.9 hPa | 0 mm | - | 815 W/m² | - |
| 1787841176 | 31.11° C | 76% | 1012.2 hPa | 0 mm | - | 823 W/m² | - |
| 1787840876 | 31.11° C | 74% | 1012.3 hPa | 0 mm | - | 830 W/m² | - |
| 1787840576 | 30.56° C | 76% | 1012 hPa | 0 mm | - | 837 W/m² | - |
| 1787840277 | 30.56° C | 76% | 1012.2 hPa | 0 mm | - | 286 W/m² | - |
| 1787839976 | 30.56° C | 77% | 1012 hPa | 0 mm | - | 242 W/m² | - |
| 1787839676 | 30.56° C | 77% | 1012 hPa | 0 mm | - | 705 W/m² | - |
| 1787839376 | 30.56° C | 77% | 1011.9 hPa | 0 mm | - | 354 W/m² | - |
| 1787839076 | 30.56° C | 76% | 1012 hPa | 0 mm | - | 756 W/m² | - |
| 1787838777 | 30.56° C | 77% | 1012.1 hPa | 0 mm | - | 210 W/m² | - |
| 1787838476 | 30.56° C | 77% | 1012.2 hPa | 0 mm | - | 242 W/m² | - |
| 1787838176 | 30.56° C | 78% | 1012 hPa | 0 mm | - | 626 W/m² | - |
| 1787837876 | 30.56° C | 78% | 1012.2 hPa | 0 mm | - | 180 W/m² | - |
| 1787837576 | 30.56° C | 77% | 1012.1 hPa | 0 mm | - | 588 W/m² | - |
| 1787837276 | 30° C | 77% | 1012.2 hPa | 0 mm | - | 389 W/m² | - |
| 1787836976 | 30° C | 77% | 1012.2 hPa | 0 mm | - | 508 W/m² | - |
| 1787836676 | 30° C | 79% | 1012.1 hPa | 0 mm | - | 536 W/m² | - |
| 1787836376 | 30.56° C | 78% | 1012.1 hPa | 0 mm | - | 495 W/m² | - |
* Rain latest hour (hover to see other rain measurements)
** Current wind speed in m/s (hover to see current wind gust speed)